createdAt,value
2023-03-06T00:01:26.993Z,4.60
2023-03-06T00:03:57.586Z,4.30
2023-03-06T00:06:28.144Z,4.20
2023-03-06T00:08:58.548Z,4.10
2023-03-06T00:11:28.993Z,3.70
2023-03-06T00:13:59.390Z,4.60
2023-03-06T00:16:29.888Z,3.90
2023-03-06T00:19:00.310Z,4.10
2023-03-06T00:21:30.724Z,4.40
2023-03-06T00:24:01.102Z,4.10
2023-03-06T00:26:31.535Z,4.10
2023-03-06T00:29:02.404Z,3.40
2023-03-06T00:31:33.065Z,4.40
2023-03-06T00:34:03.615Z,3.90
2023-03-06T00:36:34.226Z,4.70
2023-03-06T00:39:04.716Z,5.30
2023-03-06T00:41:35.253Z,4.00
2023-03-06T00:44:05.846Z,4.10
2023-03-06T00:46:36.666Z,4.10
2023-03-06T00:49:07.182Z,4.80
2023-03-06T00:51:37.817Z,3.20
2023-03-06T00:54:08.238Z,4.00
2023-03-06T00:56:38.782Z,4.00
2023-03-06T00:59:09.249Z,4.30
2023-03-06T01:01:39.679Z,4.80
2023-03-06T01:04:10.192Z,4.50
2023-03-06T01:06:40.673Z,4.30
2023-03-06T01:09:11.032Z,3.90
2023-03-06T01:11:41.805Z,4.70
2023-03-06T01:14:12.621Z,4.70
2023-03-06T01:16:43.299Z,4.30
2023-03-06T01:19:15.435Z,4.40
2023-03-06T01:21:49.090Z,4.50
2023-03-06T01:24:19.510Z,4.60
2023-03-06T01:26:49.992Z,4.90
2023-03-06T01:29:20.456Z,4.20
2023-03-06T01:31:50.944Z,5.20
2023-03-06T01:34:21.753Z,4.60
2023-03-06T01:36:52.152Z,4.30
2023-03-06T01:39:22.507Z,4.70
2023-03-06T01:41:52.951Z,4.90
2023-03-06T01:50:19.289Z,4.90
2023-03-06T01:52:51.931Z,4.80
2023-03-06T01:55:24.521Z,5.00
2023-03-06T01:57:57.616Z,5.30
2023-03-06T02:00:29.580Z,5.10
2023-03-06T02:03:05.651Z,4.90
2023-03-06T02:05:36.172Z,4.80
2023-03-06T02:08:07.788Z,5.40
2023-03-06T02:10:38.317Z,5.10
2023-03-06T02:13:08.664Z,6.40
2023-03-06T02:15:39.436Z,5.80
2023-03-06T02:18:09.883Z,6.60
2023-03-06T02:20:46.511Z,5.70
2023-03-06T02:23:26.233Z,5.70
2023-03-06T02:25:56.980Z,5.50
2023-03-06T02:28:28.145Z,5.20
2023-03-06T02:30:58.993Z,5.30
2023-03-06T02:33:30.589Z,4.90
2023-03-06T02:36:04.074Z,5.80
2023-03-06T02:38:39.094Z,5.70
2023-03-06T02:41:10.928Z,6.20
2023-03-06T02:43:42.439Z,6.10
2023-03-06T02:46:13.029Z,5.70
2023-03-06T02:48:43.379Z,5.40
2023-03-06T02:51:13.789Z,5.10
2023-03-06T02:53:44.458Z,5.40
2023-03-06T02:56:15.123Z,5.30
2023-03-06T02:58:45.702Z,5.10
2023-03-06T03:01:16.167Z,5.30
2023-03-06T03:03:47.425Z,5.20
2023-03-06T03:06:18.072Z,5.60
2023-03-06T03:08:48.848Z,5.30
2023-03-06T03:11:19.845Z,5.40
2023-03-06T03:13:50.710Z,5.10
2023-03-06T03:16:25.329Z,5.90
2023-03-06T03:18:55.944Z,5.20
2023-03-06T03:21:26.600Z,5.40
2023-03-06T03:23:57.975Z,6.00
2023-03-06T03:26:30.292Z,5.70
2023-03-06T03:29:07.666Z,5.10
2023-03-06T03:31:38.135Z,4.70
2023-03-06T03:34:09.368Z,5.20
2023-03-06T03:36:41.827Z,4.90
2023-03-06T03:39:12.866Z,5.80
2023-03-06T03:41:44.204Z,5.60
2023-03-06T03:44:15.190Z,5.40
2023-03-06T03:46:46.118Z,5.90
2023-03-06T03:49:20.506Z,5.70
2023-03-06T03:51:51.067Z,5.20
2023-03-06T03:54:22.134Z,5.20
2023-03-06T03:56:53.085Z,5.30
2023-03-06T03:59:27.720Z,6.00
2023-03-06T04:02:12.511Z,5.70
2023-03-06T04:04:50.461Z,5.20
2023-03-06T04:07:21.048Z,5.70
2023-03-06T04:09:51.677Z,5.90
2023-03-06T04:12:22.328Z,5.40
2023-03-06T04:14:52.755Z,5.40
2023-03-06T04:17:23.231Z,5.40
2023-03-06T04:19:54.612Z,5.20
2023-03-06T04:22:25.475Z,6.40
2023-03-06T04:24:56.246Z,6.00
2023-03-06T04:27:26.792Z,6.70
2023-03-06T04:29:57.321Z,5.90
2023-03-06T04:32:28.209Z,6.70
2023-03-06T04:34:59.023Z,6.00
2023-03-06T04:37:31.625Z,6.50
2023-03-06T04:40:02.641Z,6.20
2023-03-06T04:42:33.390Z,6.90
2023-03-06T04:45:03.901Z,6.60
2023-03-06T04:47:34.437Z,6.30
2023-03-06T04:50:05.581Z,6.70
2023-03-06T04:52:36.130Z,7.60
2023-03-06T04:55:08.730Z,6.30
2023-03-06T04:57:40.194Z,6.70
2023-03-06T05:00:16.482Z,7.80
2023-03-06T05:02:47.253Z,6.60
2023-03-06T05:05:18.212Z,7.40
2023-03-06T05:07:48.615Z,7.30
2023-03-06T05:10:19.586Z,6.70
2023-03-06T05:12:50.014Z,7.50
2023-03-06T05:15:20.791Z,7.30
2023-03-06T05:17:51.217Z,7.00
2023-03-06T05:20:21.786Z,8.50
2023-03-06T05:22:52.431Z,6.90
2023-03-06T05:25:23.071Z,7.50
2023-03-06T05:27:53.555Z,7.30
2023-03-06T05:30:24.249Z,7.40
2023-03-06T05:32:54.642Z,7.50
2023-03-06T05:35:26.046Z,7.10
2023-03-06T05:37:56.664Z,7.10
2023-03-06T05:40:27.067Z,6.50
2023-03-06T05:42:57.560Z,6.30
2023-03-06T05:45:27.990Z,6.30
2023-03-06T05:47:58.353Z,5.40
2023-03-06T05:50:28.712Z,5.80
2023-03-06T05:52:59.052Z,5.10
2023-03-06T05:55:29.340Z,5.70
2023-03-06T05:57:59.639Z,5.50
2023-03-06T06:00:30.246Z,5.10
2023-03-06T06:03:03.081Z,6.10
2023-03-06T06:05:33.829Z,4.80
2023-03-06T06:08:04.414Z,5.70
2023-03-06T06:10:34.912Z,5.40
2023-03-06T06:13:05.446Z,6.30
2023-03-06T06:15:35.971Z,5.50
2023-03-06T06:18:06.526Z,6.30
2023-03-06T06:20:37.569Z,5.70
2023-03-06T06:23:08.589Z,5.90
2023-03-06T06:25:39.292Z,5.90
2023-03-06T06:28:09.589Z,6.70
2023-03-06T06:30:39.921Z,6.60
2023-03-06T06:33:12.897Z,6.10
2023-03-06T06:35:43.804Z,6.10
2023-03-06T06:38:14.136Z,7.30
2023-03-06T06:40:49.293Z,6.80
2023-03-06T06:43:29.031Z,6.40
2023-03-06T06:46:24.259Z,6.80
2023-03-06T06:48:54.516Z,7.00
2023-03-06T06:51:25.338Z,7.20
2023-03-06T06:53:55.719Z,6.20
2023-03-06T06:56:26.103Z,6.90
2023-03-06T06:59:15.278Z,7.00
2023-03-06T07:01:46.689Z,7.90
2023-03-06T07:04:18.050Z,7.90
2023-03-06T07:06:48.705Z,7.50
2023-03-06T07:09:20.039Z,7.90
2023-03-06T07:11:50.903Z,6.30
2023-03-06T07:14:21.563Z,7.50
2023-03-06T07:16:52.043Z,7.40
2023-03-06T07:19:22.852Z,7.00
2023-03-06T07:21:53.241Z,7.50
2023-03-06T07:24:24.564Z,6.80
2023-03-06T07:26:55.068Z,7.60
2023-03-06T07:29:25.397Z,7.20
2023-03-06T07:31:56.400Z,8.00
2023-03-06T07:34:26.739Z,7.00
2023-03-06T07:36:57.142Z,7.80
2023-03-06T07:39:28.034Z,7.70
2023-03-06T07:41:58.793Z,7.70
2023-03-06T07:44:29.299Z,6.70
2023-03-06T07:47:00.045Z,7.80
2023-03-06T07:49:30.439Z,7.70
2023-03-06T07:52:01.568Z,7.40
2023-03-06T07:54:32.790Z,8.00
2023-03-06T07:57:03.847Z,7.60
2023-03-06T07:59:34.342Z,8.50
2023-03-06T08:02:05.025Z,8.30
2023-03-06T08:04:35.772Z,7.80
2023-03-06T08:07:06.326Z,7.90
2023-03-06T08:09:37.261Z,7.70
2023-03-06T08:12:09.805Z,7.20
2023-03-06T08:14:40.647Z,8.10
2023-03-06T08:17:11.098Z,7.10
2023-03-06T08:19:41.424Z,6.80
2023-03-06T08:22:13.943Z,6.90
2023-03-06T08:24:44.884Z,6.80
2023-03-06T08:27:15.200Z,6.90
2023-03-06T08:29:45.772Z,7.30
2023-03-06T08:32:16.757Z,7.90
2023-03-06T08:34:47.382Z,7.10
2023-03-06T08:37:17.962Z,7.30
2023-03-06T08:39:48.814Z,7.60
2023-03-06T08:42:20.236Z,7.40
2023-03-06T08:44:53.775Z,7.00
2023-03-06T08:47:26.125Z,7.00
2023-03-06T08:50:00.507Z,5.90
2023-03-06T08:52:33.359Z,8.60
2023-03-06T08:55:06.690Z,7.10
2023-03-06T08:57:39.154Z,10.30
2023-03-06T09:21:30.467Z,7.70
2023-03-06T09:27:31.155Z,8.40
2023-03-06T09:30:12.425Z,8.10
2023-03-06T09:32:47.470Z,7.70
2023-03-06T09:36:01.279Z,9.10
2023-03-06T09:39:01.246Z,8.20
2023-03-06T10:02:06.765Z,8.30
2023-03-06T10:30:02.540Z,9.30
2023-03-06T10:42:06.629Z,9.40
2023-03-06T11:19:40.152Z,10.30
2023-03-06T11:46:22.143Z,7.90
2023-03-06T12:10:52.195Z,6.80
2023-03-06T12:55:52.133Z,7.40
2023-03-06T12:58:43.993Z,6.40
2023-03-06T13:01:19.915Z,6.90
2023-03-06T13:04:04.962Z,7.50
2023-03-06T13:06:58.170Z,6.50
2023-03-06T13:09:34.234Z,7.00
2023-03-06T13:12:27.171Z,7.20
2023-03-06T13:15:02.377Z,8.90
2023-03-06T13:17:37.608Z,8.20
2023-03-06T13:20:35.222Z,8.50
2023-03-06T13:23:42.648Z,6.50
2023-03-06T13:26:34.129Z,7.60
2023-03-06T13:29:04.515Z,7.80
2023-03-06T13:32:04.924Z,5.90
2023-03-06T13:34:39.709Z,7.10
2023-03-06T13:37:43.443Z,7.10
2023-03-06T13:40:36.527Z,7.50
2023-03-06T13:43:25.107Z,6.30
2023-03-06T13:45:55.925Z,7.20
2023-03-06T13:48:44.235Z,7.80
2023-03-06T13:51:26.005Z,6.30
2023-03-06T13:54:25.525Z,5.70
2023-03-06T13:57:26.308Z,6.10
2023-03-06T14:00:19.032Z,5.20
2023-03-06T14:03:25.190Z,5.70
2023-03-06T14:05:55.559Z,7.00
2023-03-06T14:08:27.730Z,6.80
2023-03-06T14:11:13.509Z,6.30
2023-03-06T14:13:48.316Z,6.80
2023-03-06T14:16:23.390Z,7.30
2023-03-06T14:18:55.329Z,5.90
2023-03-06T14:21:30.677Z,6.70
2023-03-06T14:24:02.983Z,7.40
2023-03-06T14:26:35.600Z,6.90
2023-03-06T14:29:06.199Z,6.40
2023-03-06T14:31:39.207Z,5.70
2023-03-06T14:34:15.174Z,6.30
2023-03-06T14:36:47.551Z,7.10
2023-03-06T14:39:21.284Z,7.40
2023-03-06T14:41:52.133Z,7.00
2023-03-06T14:44:26.289Z,6.60
2023-03-06T14:46:58.505Z,7.40
2023-03-06T14:49:29.042Z,7.40
2023-03-06T14:52:01.334Z,5.50
2023-03-06T14:54:34.384Z,4.70
2023-03-06T14:57:06.818Z,7.10
2023-03-06T14:59:42.330Z,6.70
2023-03-06T15:02:16.154Z,7.60
2023-03-06T15:04:48.931Z,6.90
2023-03-06T15:07:22.746Z,6.20
2023-03-06T15:09:54.447Z,6.80
2023-03-06T15:12:39.619Z,7.40
2023-03-06T15:15:28.680Z,7.10
2023-03-06T15:17:59.300Z,7.20
2023-03-06T15:20:51.432Z,7.10
2023-03-06T15:23:27.218Z,7.00
2023-03-06T15:26:00.220Z,6.80
2023-03-06T15:33:34.174Z,7.90
2023-03-06T15:36:06.836Z,7.80
2023-03-06T15:38:39.866Z,8.50
2023-03-06T15:41:24.095Z,7.10
2023-03-06T15:43:54.535Z,7.40
2023-03-06T15:46:24.946Z,7.40
2023-03-06T15:48:56.792Z,8.00
2023-03-06T15:51:27.740Z,7.50
2023-03-06T15:54:09.785Z,6.60
2023-03-06T15:56:44.244Z,8.20
2023-03-06T15:59:19.087Z,7.60
2023-03-06T16:01:49.624Z,7.20
2023-03-06T16:04:20.421Z,8.60
2023-03-06T16:06:50.731Z,7.40
2023-03-06T16:09:22.659Z,7.60
2023-03-06T16:11:53.165Z,8.30
2023-03-06T16:14:24.442Z,8.10
2023-03-06T16:16:57.518Z,7.80
2023-03-06T16:19:28.479Z,7.50
2023-03-06T16:21:59.194Z,6.30
2023-03-06T16:24:29.557Z,7.30
2023-03-06T16:27:01.490Z,8.20
2023-03-06T16:29:32.221Z,8.50
2023-03-06T16:32:02.794Z,8.10
2023-03-06T16:34:33.166Z,8.10
2023-03-06T16:37:03.441Z,7.10
2023-03-06T16:39:33.766Z,8.00
2023-03-06T16:42:04.026Z,7.60
2023-03-06T16:44:34.363Z,6.60
2023-03-06T16:47:05.543Z,7.00
2023-03-06T16:49:36.033Z,9.30
2023-03-06T16:52:07.585Z,7.10
2023-03-06T16:54:37.845Z,7.30
2023-03-06T16:57:08.211Z,8.00
2023-03-06T16:59:38.498Z,7.90
2023-03-06T17:02:09.705Z,7.60
2023-03-06T17:04:40.148Z,8.50
2023-03-06T17:07:10.428Z,8.00
2023-03-06T17:09:40.763Z,6.90
2023-03-06T17:12:11.776Z,7.90
2023-03-06T17:14:42.607Z,8.10
2023-03-06T17:17:13.028Z,9.10
2023-03-06T17:19:47.083Z,7.10
2023-03-06T17:22:17.950Z,8.60
2023-03-06T17:24:49.938Z,7.40
2023-03-06T17:27:20.814Z,6.80
2023-03-06T17:29:51.139Z,8.20
2023-03-06T17:32:21.755Z,7.40
2023-03-06T17:34:52.228Z,7.40
2023-03-06T17:37:23.115Z,9.30
2023-03-06T17:39:53.723Z,6.90
2023-03-06T17:42:24.191Z,8.10
2023-03-06T17:44:55.434Z,7.70
2023-03-06T17:47:26.261Z,6.40
2023-03-06T17:49:56.962Z,8.40
2023-03-06T17:52:27.980Z,7.70
2023-03-06T17:54:58.617Z,7.90
2023-03-06T17:57:29.252Z,7.40
2023-03-06T17:59:59.910Z,6.90
2023-03-06T18:02:30.423Z,6.80
2023-03-06T18:05:00.774Z,7.60
2023-03-06T18:07:32.439Z,6.20
2023-03-06T18:10:02.935Z,8.00
2023-03-06T18:12:33.454Z,7.20
2023-03-06T18:15:05.203Z,6.40
2023-03-06T18:17:36.140Z,7.90
2023-03-06T18:20:07.775Z,6.30
2023-03-06T18:22:38.318Z,7.40
2023-03-06T18:25:10.228Z,7.80
2023-03-06T18:27:40.622Z,8.00
2023-03-06T18:30:12.929Z,6.70
2023-03-06T18:32:43.471Z,7.20
2023-03-06T18:35:13.988Z,7.40
2023-03-06T18:37:44.385Z,7.20
2023-03-06T18:40:16.857Z,7.00
2023-03-06T18:42:48.039Z,6.90
2023-03-06T18:45:18.754Z,7.00
2023-03-06T18:47:49.216Z,5.90
2023-03-06T18:50:20.125Z,6.40
2023-03-06T18:52:50.387Z,6.30
2023-03-06T18:55:21.478Z,7.40
2023-03-06T18:57:51.811Z,6.50
2023-03-06T19:00:23.696Z,5.80
2023-03-06T19:02:54.292Z,6.00
2023-03-06T19:05:25.939Z,6.80
2023-03-06T19:07:57.649Z,6.30
2023-03-06T19:10:30.187Z,6.80
2023-03-06T19:13:00.800Z,7.50
2023-03-06T19:15:31.495Z,7.70
2023-03-06T19:18:01.896Z,8.00
2023-03-06T19:20:32.470Z,6.80
2023-03-06T19:23:03.262Z,6.80
2023-03-06T19:25:33.874Z,8.40
2023-03-06T19:28:05.819Z,8.40
2023-03-06T19:30:36.218Z,8.90
2023-03-06T19:33:07.165Z,8.40
2023-03-06T19:35:37.715Z,9.00
2023-03-06T19:38:09.901Z,8.30
2023-03-06T19:40:40.498Z,8.30
2023-03-06T19:43:12.563Z,8.20
2023-03-06T19:45:45.275Z,8.70
2023-03-06T19:48:16.136Z,8.40
2023-03-06T19:50:47.677Z,8.90
2023-03-06T19:53:18.435Z,8.10
2023-03-06T19:55:49.719Z,8.60
2023-03-06T19:58:21.293Z,8.30
2023-03-06T20:00:52.100Z,8.10
2023-03-06T20:03:22.749Z,7.30
2023-03-06T20:05:53.150Z,8.00
2023-03-06T20:08:23.670Z,8.30
2023-03-06T20:10:55.072Z,8.30
2023-03-06T20:13:26.164Z,9.30
2023-03-06T20:15:56.983Z,9.90
2023-03-06T20:18:28.208Z,8.50
2023-03-06T20:21:03.782Z,8.80
2023-03-06T20:23:35.760Z,9.60
2023-03-06T20:26:09.455Z,9.50
2023-03-06T20:28:40.884Z,7.70
2023-03-06T20:31:13.323Z,6.60
2023-03-06T20:33:43.974Z,8.60
2023-03-06T20:36:17.018Z,9.90
2023-03-06T20:38:48.559Z,10.00
2023-03-06T20:41:22.283Z,10.00
2023-03-06T20:43:55.277Z,9.40
2023-03-06T20:46:27.976Z,11.50
2023-03-06T20:48:59.649Z,9.90
2023-03-06T20:51:33.050Z,10.10
2023-03-06T20:54:05.724Z,10.00
2023-03-06T20:56:41.842Z,10.30
2023-03-06T20:59:14.982Z,9.70
2023-03-06T21:01:47.974Z,9.10
2023-03-06T21:04:20.830Z,8.90
2023-03-06T21:06:55.465Z,10.30
2023-03-06T21:13:40.916Z,9.80
2023-03-06T21:16:15.936Z,10.40
2023-03-06T21:18:48.187Z,10.10
2023-03-06T21:21:20.824Z,10.60
2023-03-06T21:23:53.264Z,9.70
2023-03-06T21:30:18.919Z,8.30
2023-03-06T21:32:50.910Z,9.00
2023-03-06T21:35:23.914Z,9.40
2023-03-06T21:40:26.224Z,12.50
2023-03-06T21:48:41.680Z,10.90
2023-03-06T21:51:15.614Z,11.70
2023-03-06T21:53:47.879Z,10.50
2023-03-06T21:56:20.507Z,11.70
2023-03-06T21:58:51.131Z,10.80
2023-03-06T22:01:23.888Z,10.40
2023-03-06T22:03:54.492Z,10.40
2023-03-06T22:06:26.695Z,12.20
2023-03-06T22:08:59.047Z,11.90
2023-03-06T22:11:31.484Z,11.10
2023-03-06T22:14:02.021Z,11.00
2023-03-06T22:16:32.727Z,9.20
2023-03-06T22:19:03.342Z,10.70
2023-03-06T22:21:33.875Z,10.10
2023-03-06T22:24:04.689Z,11.40
2023-03-06T22:26:35.143Z,12.80
2023-03-06T22:29:05.709Z,12.40
2023-03-06T22:31:36.107Z,12.80
2023-03-06T22:34:06.732Z,12.70
2023-03-06T22:36:37.203Z,10.80
2023-03-06T22:39:07.667Z,10.00
2023-03-06T22:41:38.413Z,12.10
2023-03-06T22:44:09.247Z,10.70
2023-03-06T22:46:41.587Z,9.60
2023-03-06T22:49:13.584Z,10.70
2023-03-06T22:51:44.185Z,9.90
2023-03-06T22:54:14.561Z,10.20
2023-03-06T22:56:44.860Z,9.00
2023-03-06T22:59:15.412Z,8.70
2023-03-06T23:01:45.755Z,12.10
2023-03-06T23:04:16.219Z,9.70
2023-03-06T23:06:46.952Z,6.90
2023-03-06T23:09:21.471Z,11.30
2023-03-06T23:12:11.683Z,7.60
2023-03-06T23:15:00.933Z,10.90
2023-03-06T23:17:50.883Z,10.80
2023-03-06T23:20:44.766Z,10.30
2023-03-06T23:23:34.142Z,10.00
2023-03-06T23:26:04.773Z,12.50
2023-03-06T23:28:35.925Z,12.80
2023-03-06T23:31:10.718Z,11.20
2023-03-06T23:33:41.265Z,11.50
2023-03-06T23:36:13.985Z,10.70
2023-03-06T23:38:45.257Z,10.20
2023-03-06T23:41:18.073Z,10.80
2023-03-06T23:43:49.184Z,12.20
2023-03-06T23:46:20.162Z,13.20
2023-03-06T23:48:50.571Z,13.60
2023-03-06T23:51:23.013Z,11.80
2023-03-06T23:53:58.027Z,11.30
2023-03-06T23:56:29.059Z,12.20
2023-03-06T23:58:59.452Z,13.40
